createdAt,value
2023-05-06T00:00:22.511Z,9.45
2023-05-06T00:03:10.517Z,8.70
2023-05-06T00:05:38.532Z,13.20
2023-05-06T00:08:06.738Z,10.98
2023-05-06T00:10:34.654Z,10.07
2023-05-06T00:13:02.641Z,16.35
2023-05-06T00:15:32.049Z,10.35
2023-05-06T00:18:01.305Z,10.45
2023-05-06T00:20:29.492Z,11.80
2023-05-06T00:22:57.802Z,11.30
2023-05-06T00:25:25.617Z,8.57
2023-05-06T00:27:54.001Z,12.32
2023-05-06T00:30:21.752Z,7.82
2023-05-06T00:32:49.806Z,8.43
2023-05-06T00:35:17.510Z,12.48
2023-05-06T00:37:58.737Z,12.57
2023-05-06T00:40:26.445Z,7.85
2023-05-06T00:42:54.392Z,9.93
2023-05-06T00:45:22.183Z,8.52
2023-05-06T00:47:50.276Z,7.72
2023-05-06T00:50:18.707Z,8.65
2023-05-06T00:52:47.370Z,7.00
2023-05-06T00:55:15.886Z,7.22
2023-05-06T00:57:44.325Z,10.25
2023-05-06T01:00:12.609Z,8.57
2023-05-06T01:02:46.961Z,8.18
2023-05-06T01:05:17.894Z,8.95
2023-05-06T01:08:11.613Z,6.68
2023-05-06T01:10:45.140Z,9.23
2023-05-06T01:13:30.885Z,9.07
2023-05-06T01:16:01.399Z,8.80
2023-05-06T01:18:32.594Z,10.27
2023-05-06T01:21:01.939Z,12.27
2023-05-06T01:23:30.162Z,6.68
2023-05-06T01:25:57.798Z,11.38
2023-05-06T01:28:25.880Z,8.45
2023-05-06T01:30:53.612Z,9.07
2023-05-06T01:33:32.809Z,8.23
2023-05-06T01:36:11.634Z,8.32
2023-05-06T01:38:51.672Z,6.68
2023-05-06T01:41:21.070Z,6.47
2023-05-06T01:43:52.828Z,8.13
2023-05-06T01:46:23.674Z,8.00
2023-05-06T01:48:55.223Z,11.85
2023-05-06T01:51:24.934Z,6.70
2023-05-06T01:53:53.004Z,6.32
2023-05-06T01:56:20.741Z,6.85
2023-05-06T01:58:48.768Z,10.45
2023-05-06T02:01:16.545Z,8.05
2023-05-06T02:03:44.546Z,8.27
2023-05-06T02:06:12.373Z,8.55
2023-05-06T02:08:43.477Z,7.78
2023-05-06T02:11:16.292Z,8.50
2023-05-06T02:13:44.423Z,7.10
2023-05-06T02:16:12.284Z,6.85
2023-05-06T02:18:41.480Z,8.57
2023-05-06T02:21:10.879Z,9.73
2023-05-06T02:23:38.862Z,7.75
2023-05-06T02:26:06.526Z,6.00
2023-05-06T02:28:34.411Z,7.80
2023-05-06T02:31:02.100Z,5.97
2023-05-06T02:33:30.124Z,6.32
2023-05-06T02:35:57.772Z,7.35
2023-05-06T02:38:25.830Z,10.52
2023-05-06T02:40:54.371Z,9.65
2023-05-06T02:43:23.251Z,7.65
2023-05-06T02:45:51.204Z,8.05
2023-05-06T02:48:20.160Z,9.00
2023-05-06T02:50:47.831Z,6.65
2023-05-06T02:53:15.905Z,7.38
2023-05-06T02:55:43.687Z,10.55
2023-05-06T02:58:11.611Z,8.50
2023-05-06T03:00:39.267Z,11.20
2023-05-06T03:03:07.346Z,7.25
2023-05-06T03:05:35.204Z,6.47
2023-05-06T03:08:03.208Z,7.80
2023-05-06T03:10:31.972Z,9.88
2023-05-06T03:13:02.022Z,6.57
2023-05-06T03:15:30.474Z,5.88
2023-05-06T03:17:58.451Z,9.18
2023-05-06T03:20:28.877Z,7.88
2023-05-06T03:22:59.650Z,8.57
2023-05-06T03:25:27.752Z,9.80
2023-05-06T03:27:56.921Z,9.57
2023-05-06T03:30:25.120Z,9.02
2023-05-06T03:32:57.176Z,10.82
2023-05-06T03:35:30.891Z,8.68
2023-05-06T03:38:00.785Z,7.45
2023-05-06T03:40:36.470Z,9.40
2023-05-06T03:43:04.972Z,5.82
2023-05-06T03:45:33.704Z,5.38
2023-05-06T03:48:04.236Z,7.95
2023-05-06T03:50:34.202Z,5.78
2023-05-06T03:53:02.216Z,7.55
2023-05-06T03:55:32.963Z,7.32
2023-05-06T03:58:02.005Z,5.50
2023-05-06T04:00:29.757Z,8.98
2023-05-06T04:02:57.901Z,7.18
2023-05-06T04:05:36.567Z,6.28
2023-05-06T04:08:05.371Z,7.22
2023-05-06T04:10:33.056Z,8.05
2023-05-06T04:13:07.714Z,6.22
2023-05-06T04:18:18.999Z,7.88
2023-05-06T04:20:55.294Z,5.93
2023-05-06T04:23:23.432Z,7.43
2023-05-06T04:25:51.244Z,8.43
2023-05-06T04:28:21.849Z,9.60
2023-05-06T04:30:52.899Z,11.02
2023-05-06T04:33:24.361Z,6.93
2023-05-06T04:35:53.909Z,9.38
2023-05-06T04:38:25.764Z,9.45
2023-05-06T04:40:55.477Z,7.07
2023-05-06T04:43:23.703Z,7.05
2023-05-06T04:48:31.037Z,6.82
2023-05-06T04:51:00.608Z,7.70
2023-05-06T04:53:29.173Z,6.97
2023-05-06T04:55:56.916Z,7.22
2023-05-06T04:58:25.043Z,6.90
2023-05-06T05:00:52.940Z,6.72
2023-05-06T05:03:21.093Z,5.45
2023-05-06T05:05:48.916Z,12.35
2023-05-06T05:08:20.293Z,8.93
2023-05-06T05:10:48.265Z,5.22
2023-05-06T05:13:21.604Z,6.57
2023-05-06T05:15:54.630Z,6.55
2023-05-06T05:18:24.394Z,7.82
2023-05-06T05:20:55.898Z,6.30
2023-05-06T05:23:24.136Z,6.10
2023-05-06T05:25:51.838Z,7.10
2023-05-06T05:28:19.933Z,10.73
2023-05-06T05:30:48.171Z,5.97
2023-05-06T05:33:16.279Z,7.35
2023-05-06T05:35:44.835Z,5.50
2023-05-06T05:38:14.394Z,5.75
2023-05-06T05:40:42.328Z,7.45
2023-05-06T05:43:10.633Z,8.43
2023-05-06T05:45:40.952Z,8.35
2023-05-06T05:48:11.034Z,9.10
2023-05-06T05:50:39.226Z,6.90
2023-05-06T05:53:07.698Z,6.57
2023-05-06T05:55:37.515Z,5.72
2023-05-06T05:58:06.636Z,5.97
2023-05-06T06:00:35.142Z,5.13
2023-05-06T06:03:11.528Z,7.63
2023-05-06T06:05:40.263Z,15.77
2023-05-06T06:08:08.779Z,9.25
2023-05-06T06:10:36.661Z,5.72
2023-05-06T06:13:11.219Z,7.22
2023-05-06T06:15:38.930Z,6.28
2023-05-06T06:18:08.800Z,7.55
2023-05-06T06:20:38.382Z,6.63
2023-05-06T06:23:06.339Z,6.10
2023-05-06T06:25:34.012Z,4.10
2023-05-06T06:28:01.979Z,8.35
2023-05-06T06:30:29.765Z,6.07
2023-05-06T06:32:58.984Z,6.30
2023-05-06T06:35:27.356Z,7.05
2023-05-06T06:37:55.507Z,7.70
2023-05-06T06:40:23.614Z,6.35
2023-05-06T06:42:51.691Z,7.72
2023-05-06T06:45:32.630Z,5.85
2023-05-06T06:48:00.728Z,5.50
2023-05-06T06:50:28.367Z,4.57
2023-05-06T06:52:56.363Z,5.00
2023-05-06T06:55:24.081Z,4.57
2023-05-06T06:57:52.098Z,6.32
2023-05-06T07:00:19.703Z,3.17
2023-05-06T07:02:48.697Z,7.25
2023-05-06T07:05:16.665Z,4.15
2023-05-06T07:07:44.618Z,5.75
2023-05-06T07:10:12.365Z,6.10
2023-05-06T07:12:40.332Z,5.40
2023-05-06T07:15:09.178Z,5.93
2023-05-06T07:17:37.477Z,5.93
2023-05-06T07:20:05.767Z,4.80
2023-05-06T07:22:33.779Z,3.50
2023-05-06T07:25:01.463Z,3.30
2023-05-06T07:27:30.886Z,4.43
2023-05-06T07:29:58.765Z,6.47
2023-05-06T07:32:26.963Z,4.75
2023-05-06T07:34:54.718Z,6.20
2023-05-06T07:37:22.707Z,3.35
2023-05-06T07:39:50.898Z,2.55
2023-05-06T07:42:18.795Z,2.80
2023-05-06T07:44:46.413Z,6.25
2023-05-06T07:47:26.216Z,6.00
2023-05-06T07:49:54.662Z,3.65
2023-05-06T07:52:23.569Z,3.60
2023-05-06T07:54:51.466Z,6.75
2023-05-06T07:57:19.356Z,4.68
2023-05-06T07:59:52.034Z,8.90
2023-05-06T08:02:20.073Z,4.35
2023-05-06T08:04:49.501Z,4.90
2023-05-06T08:07:19.141Z,4.00
2023-05-06T08:09:46.784Z,6.45
2023-05-06T08:12:15.887Z,2.60
2023-05-06T08:14:43.629Z,2.28
2023-05-06T08:17:13.238Z,6.03
2023-05-06T08:19:41.036Z,6.90
2023-05-06T08:22:09.014Z,6.93
2023-05-06T08:24:36.738Z,4.53
2023-05-06T08:27:05.015Z,3.80
2023-05-06T08:29:32.701Z,4.60
2023-05-06T08:32:01.580Z,5.13
2023-05-06T08:34:29.388Z,3.17
2023-05-06T08:36:57.337Z,4.00
2023-05-06T08:39:25.100Z,6.90
2023-05-06T08:41:54.434Z,6.03
2023-05-06T08:44:24.826Z,5.60
2023-05-06T08:46:53.018Z,4.75
2023-05-06T08:49:21.157Z,4.80
2023-05-06T08:51:52.474Z,2.50
2023-05-06T08:54:20.180Z,4.68
2023-05-06T08:56:53.995Z,3.30
2023-05-06T08:59:25.974Z,5.40
2023-05-06T09:01:54.016Z,7.15
2023-05-06T09:04:22.226Z,8.35
2023-05-06T09:06:50.406Z,6.57
2023-05-06T09:09:18.096Z,4.40
2023-05-06T09:11:46.071Z,6.07
2023-05-06T09:14:17.910Z,5.65
2023-05-06T09:16:49.523Z,6.10
2023-05-06T09:19:19.848Z,6.45
2023-05-06T09:21:50.373Z,4.15
2023-05-06T09:24:18.434Z,4.40
2023-05-06T09:26:47.361Z,4.20
2023-05-06T09:29:15.193Z,5.20
2023-05-06T09:31:47.792Z,5.45
2023-05-06T09:34:17.942Z,7.10
2023-05-06T09:36:46.007Z,8.32
2023-05-06T09:39:13.759Z,8.25
2023-05-06T09:41:42.566Z,8.18
2023-05-06T09:44:11.556Z,5.60
2023-05-06T09:46:41.356Z,4.22
2023-05-06T09:49:10.264Z,6.30
2023-05-06T09:51:38.921Z,4.60
2023-05-06T09:54:07.598Z,6.05
2023-05-06T09:56:36.793Z,6.38
2023-05-06T09:59:05.920Z,10.73
2023-05-06T10:01:37.215Z,4.18
2023-05-06T10:04:11.112Z,4.68
2023-05-06T10:06:43.026Z,5.43
2023-05-06T10:09:11.499Z,8.98
2023-05-06T10:11:40.549Z,6.97
2023-05-06T10:14:09.270Z,5.00
2023-05-06T10:16:40.462Z,4.47
2023-05-06T10:19:09.393Z,7.57
2023-05-06T10:21:45.231Z,11.60
2023-05-06T10:24:17.270Z,3.83
2023-05-06T10:26:48.900Z,8.38
2023-05-06T10:29:17.560Z,8.07
2023-05-06T10:31:52.591Z,7.63
2023-05-06T10:34:22.773Z,6.13
2023-05-06T10:36:57.991Z,5.63
2023-05-06T10:39:26.590Z,5.22
2023-05-06T10:41:54.714Z,5.53
2023-05-06T10:44:58.191Z,6.40
2023-05-06T10:47:27.023Z,6.15
2023-05-06T10:50:20.607Z,9.63
2023-05-06T10:52:55.420Z,5.13
2023-05-06T10:55:33.244Z,7.90
2023-05-06T10:58:04.364Z,10.95
2023-05-06T11:00:33.516Z,6.43
2023-05-06T11:03:11.118Z,9.10
2023-05-06T11:05:50.145Z,4.13
2023-05-06T11:08:26.108Z,6.55
2023-05-06T11:10:54.826Z,6.35
2023-05-06T11:13:26.657Z,8.70
2023-05-06T11:15:56.250Z,11.13
2023-05-06T11:18:27.937Z,4.57
2023-05-06T11:21:03.783Z,5.90
2023-05-06T11:23:46.997Z,12.13
2023-05-06T11:26:15.377Z,7.45
2023-05-06T11:28:45.409Z,5.05
2023-05-06T11:31:14.693Z,8.00
2023-05-06T11:33:55.153Z,6.72
2023-05-06T11:36:22.953Z,8.48
2023-05-06T11:38:52.940Z,6.47
2023-05-06T11:41:23.085Z,5.43
2023-05-06T11:43:52.696Z,4.20
2023-05-06T11:46:22.264Z,6.90
2023-05-06T11:48:50.849Z,6.55
2023-05-06T11:51:25.051Z,4.35
2023-05-06T11:54:15.619Z,7.18
2023-05-06T11:56:48.282Z,6.55
2023-05-06T11:59:18.523Z,7.95
2023-05-06T12:01:46.881Z,8.15
2023-05-06T12:04:14.908Z,5.80
2023-05-06T12:06:42.704Z,6.00
2023-05-06T12:09:13.598Z,11.15
2023-05-06T12:11:44.303Z,5.88
2023-05-06T12:14:13.307Z,9.30
2023-05-06T12:16:42.336Z,5.25
2023-05-06T12:19:10.965Z,6.43
2023-05-06T12:21:39.324Z,6.88
2023-05-06T12:24:07.582Z,12.43
2023-05-06T12:26:49.431Z,8.50
2023-05-06T12:29:18.102Z,6.80
2023-05-06T12:31:47.423Z,5.53
2023-05-06T12:34:17.920Z,7.53
2023-05-06T12:36:48.794Z,6.90
2023-05-06T12:39:17.635Z,6.63
2023-05-06T12:41:46.479Z,8.60
2023-05-06T12:44:38.339Z,8.77
2023-05-06T12:47:10.520Z,8.55
2023-05-06T12:49:47.225Z,12.43
2023-05-06T12:52:15.986Z,9.32
2023-05-06T12:54:44.382Z,6.15
2023-05-06T12:57:12.104Z,9.98
2023-05-06T12:59:40.968Z,10.15
2023-05-06T13:02:08.690Z,10.68
2023-05-06T13:04:36.698Z,9.60
2023-05-06T13:07:04.426Z,6.38
2023-05-06T13:09:32.785Z,7.07
2023-05-06T13:12:01.295Z,12.25
2023-05-06T13:14:29.287Z,11.05
2023-05-06T13:17:00.419Z,9.43
2023-05-06T13:19:32.945Z,18.10
2023-05-06T13:22:01.757Z,15.45
2023-05-06T13:24:30.805Z,20.13
2023-05-06T13:27:00.959Z,16.10
2023-05-06T13:29:29.823Z,13.93
2023-05-06T13:31:57.833Z,14.15
2023-05-06T13:34:26.140Z,11.05
2023-05-06T13:36:54.882Z,16.77
2023-05-06T13:39:23.504Z,16.40
2023-05-06T13:41:51.751Z,16.15
2023-05-06T13:44:20.742Z,15.65
2023-05-06T13:46:48.944Z,22.27
2023-05-06T13:49:17.044Z,15.60
2023-05-06T13:51:44.801Z,11.55
2023-05-06T13:54:12.792Z,14.40
2023-05-06T13:56:40.522Z,12.65
2023-05-06T13:59:10.064Z,16.40
2023-05-06T14:01:38.452Z,22.27
2023-05-06T14:04:06.533Z,18.25
2023-05-06T14:06:34.189Z,20.13
2023-05-06T14:09:02.122Z,20.33
2023-05-06T14:11:29.891Z,17.30
2023-05-06T14:13:57.913Z,14.02
2023-05-06T14:16:25.604Z,16.20
2023-05-06T14:18:53.669Z,17.90
2023-05-06T14:21:21.995Z,18.27
2023-05-06T14:23:49.945Z,16.83
2023-05-06T14:26:17.807Z,12.63
2023-05-06T14:28:45.774Z,14.30
2023-05-06T14:31:13.539Z,17.10
2023-05-06T14:33:41.603Z,14.63
2023-05-06T14:36:09.453Z,16.05
2023-05-06T14:38:37.519Z,16.88
2023-05-06T14:41:05.189Z,15.82
2023-05-06T14:43:33.169Z,13.02
2023-05-06T14:46:01.073Z,13.32
2023-05-06T14:48:29.097Z,14.48
2023-05-06T14:50:56.728Z,12.65
2023-05-06T14:53:24.670Z,13.70
2023-05-06T14:55:52.324Z,18.65
2023-05-06T14:58:20.257Z,14.48
2023-05-06T15:00:47.970Z,14.50
2023-05-06T15:03:15.965Z,11.68
2023-05-06T15:05:43.890Z,13.98
2023-05-06T15:08:11.819Z,12.65
2023-05-06T15:10:40.773Z,13.20
2023-05-06T15:13:09.033Z,12.50
2023-05-06T15:15:36.814Z,11.73
2023-05-06T15:18:05.039Z,12.65
2023-05-06T15:20:32.823Z,14.55
2023-05-06T15:23:00.819Z,16.38
2023-05-06T15:25:35.701Z,18.42
2023-05-06T15:28:05.613Z,16.17
2023-05-06T15:30:33.432Z,17.05
2023-05-06T15:33:02.853Z,15.20
2023-05-06T15:35:31.802Z,18.05
2023-05-06T15:38:00.158Z,23.45
2023-05-06T15:40:28.274Z,15.27
2023-05-06T15:42:56.828Z,17.70
2023-05-06T15:45:24.663Z,15.70
2023-05-06T15:47:54.146Z,14.07
2023-05-06T15:50:32.954Z,14.75
2023-05-06T15:53:02.860Z,18.20
2023-05-06T15:55:35.252Z,18.88
2023-05-06T15:58:11.671Z,22.50
2023-05-06T16:00:39.415Z,21.10
2023-05-06T16:03:10.886Z,19.25
2023-05-06T16:05:40.069Z,26.50
2023-05-06T16:08:08.200Z,17.88
2023-05-06T16:10:35.926Z,14.25
2023-05-06T16:13:03.903Z,13.30
2023-05-06T16:15:31.596Z,15.40
2023-05-06T16:17:59.719Z,15.93
2023-05-06T16:20:27.461Z,18.88
2023-05-06T16:22:55.438Z,17.55
2023-05-06T16:25:23.626Z,14.43
2023-05-06T16:27:51.786Z,16.65
2023-05-06T16:30:19.460Z,15.48
2023-05-06T16:32:47.818Z,18.50
2023-05-06T16:35:17.701Z,18.80
2023-05-06T16:37:46.182Z,19.17
2023-05-06T16:40:18.472Z,17.17
2023-05-06T16:42:47.128Z,20.35
2023-05-06T16:45:14.897Z,13.98
2023-05-06T16:47:44.607Z,16.67
2023-05-06T16:50:13.068Z,18.38
2023-05-06T16:52:41.522Z,18.23
2023-05-06T16:55:09.628Z,18.80
2023-05-06T16:57:37.674Z,19.40
2023-05-06T17:00:08.399Z,18.15
2023-05-06T17:02:36.547Z,18.73
2023-05-06T17:05:04.563Z,18.52
2023-05-06T17:07:32.529Z,21.45
2023-05-06T17:10:00.688Z,17.40
2023-05-06T17:12:28.768Z,18.83
2023-05-06T17:14:56.601Z,18.90
2023-05-06T17:17:28.520Z,23.52
2023-05-06T17:19:57.590Z,14.65
2023-05-06T17:22:26.477Z,17.27
2023-05-06T17:24:54.399Z,19.15
2023-05-06T17:27:22.414Z,15.98
2023-05-06T17:29:50.336Z,14.32
2023-05-06T17:32:19.887Z,16.60
2023-05-06T17:34:47.714Z,22.35
2023-05-06T17:37:15.984Z,13.93
2023-05-06T17:39:43.752Z,15.95
2023-05-06T17:42:11.786Z,15.80
2023-05-06T17:44:40.269Z,16.67
2023-05-06T17:47:08.812Z,22.70
2023-05-06T17:49:36.669Z,19.75
2023-05-06T17:52:04.868Z,16.63
2023-05-06T17:54:32.683Z,18.60
2023-05-06T17:57:03.385Z,22.58
2023-05-06T17:59:31.216Z,18.90
2023-05-06T18:02:00.395Z,18.25
2023-05-06T18:04:28.154Z,18.88
2023-05-06T18:06:57.094Z,15.48
2023-05-06T18:09:24.698Z,19.08
2023-05-06T18:11:52.715Z,21.98
2023-05-06T18:14:20.571Z,18.42
2023-05-06T18:16:48.509Z,15.35
2023-05-06T18:19:16.148Z,15.57
2023-05-06T18:21:45.946Z,16.95
2023-05-06T18:24:16.316Z,13.73
2023-05-06T18:26:46.059Z,17.75
2023-05-06T18:29:14.279Z,18.67
2023-05-06T18:31:42.614Z,17.83
2023-05-06T18:34:10.569Z,22.80
2023-05-06T18:36:38.875Z,18.13
2023-05-06T18:39:07.333Z,12.93
2023-05-06T18:41:35.702Z,18.83
2023-05-06T18:44:04.632Z,18.50
2023-05-06T18:46:32.827Z,14.27
2023-05-06T18:49:01.071Z,19.30
2023-05-06T18:51:29.108Z,20.67
2023-05-06T18:53:56.797Z,17.80
2023-05-06T18:56:24.713Z,15.60
2023-05-06T18:58:52.867Z,16.15
2023-05-06T19:01:21.168Z,19.98
2023-05-06T19:03:49.016Z,14.30
2023-05-06T19:06:17.104Z,18.88
2023-05-06T19:08:44.780Z,15.60
2023-05-06T19:11:16.942Z,19.45
2023-05-06T19:13:46.649Z,16.30
2023-05-06T19:16:14.914Z,16.75
2023-05-06T19:18:42.707Z,15.93
2023-05-06T19:21:11.878Z,14.77
2023-05-06T19:23:39.709Z,16.10
2023-05-06T19:26:10.962Z,14.57
2023-05-06T19:28:40.273Z,15.77
2023-05-06T19:31:10.296Z,17.75
2023-05-06T19:33:42.533Z,18.38
2023-05-06T19:36:11.070Z,16.42
2023-05-06T19:38:38.838Z,12.73
2023-05-06T19:41:08.421Z,17.15
2023-05-06T19:43:42.159Z,15.50
2023-05-06T19:48:41.541Z,16.02
2023-05-06T19:51:09.575Z,18.15
2023-05-06T19:53:37.458Z,19.45
2023-05-06T19:56:12.664Z,16.20
2023-05-06T19:58:41.522Z,13.35
2023-05-06T20:01:09.941Z,15.90
2023-05-06T20:03:38.172Z,14.20
2023-05-06T20:06:06.931Z,19.48
2023-05-06T20:08:35.569Z,16.65
2023-05-06T20:11:03.752Z,13.00
2023-05-06T20:13:31.679Z,15.98
2023-05-06T20:15:59.814Z,14.85
2023-05-06T20:18:27.565Z,13.00
2023-05-06T20:20:56.307Z,14.02
2023-05-06T20:23:23.925Z,11.13
2023-05-06T20:25:52.011Z,12.05
2023-05-06T20:28:19.864Z,14.38
2023-05-06T20:30:48.898Z,16.08
2023-05-06T20:33:16.689Z,14.07
2023-05-06T20:35:44.662Z,16.80
2023-05-06T20:38:12.447Z,14.45
2023-05-06T20:40:40.681Z,15.63
2023-05-06T20:43:08.409Z,13.48
2023-05-06T20:45:36.406Z,13.30
2023-05-06T20:48:04.276Z,12.52
2023-05-06T20:50:32.286Z,15.02
2023-05-06T20:53:01.668Z,14.32
2023-05-06T20:55:29.640Z,11.77
2023-05-06T20:57:57.342Z,12.85
2023-05-06T21:00:25.466Z,15.60
2023-05-06T21:02:53.297Z,15.20
2023-05-06T21:05:21.389Z,14.40
2023-05-06T21:07:49.036Z,11.65
2023-05-06T21:10:17.063Z,15.20
2023-05-06T21:12:48.704Z,12.82
2023-05-06T21:15:17.340Z,15.20
2023-05-06T21:17:45.247Z,11.48
2023-05-06T21:20:13.561Z,12.07
2023-05-06T21:22:41.165Z,11.55
2023-05-06T21:25:09.826Z,12.63
2023-05-06T21:27:37.668Z,15.27
2023-05-06T21:30:06.492Z,13.27
2023-05-06T21:32:34.249Z,15.82
2023-05-06T21:35:03.300Z,13.15
2023-05-06T21:37:31.011Z,15.50
2023-05-06T21:40:00.108Z,15.65
2023-05-06T21:42:28.335Z,13.35
2023-05-06T21:44:56.348Z,14.10
2023-05-06T21:47:24.095Z,13.30
2023-05-06T21:49:52.044Z,12.75
2023-05-06T21:52:19.706Z,14.60
2023-05-06T21:54:47.787Z,14.23
2023-05-06T21:57:15.524Z,12.07
2023-05-06T21:59:43.449Z,12.77
2023-05-06T22:02:11.158Z,16.60
2023-05-06T22:04:39.086Z,12.23
2023-05-06T22:07:07.050Z,13.18
2023-05-06T22:09:34.944Z,11.55
2023-05-06T22:12:06.597Z,10.35
2023-05-06T22:14:40.888Z,13.90
2023-05-06T22:17:10.513Z,11.70
2023-05-06T22:19:39.046Z,12.05
2023-05-06T22:22:07.023Z,11.40
2023-05-06T22:24:35.123Z,14.07
2023-05-06T22:27:03.397Z,10.98
2023-05-06T22:29:31.398Z,11.00
2023-05-06T22:31:59.106Z,9.80
2023-05-06T22:34:27.293Z,14.13
2023-05-06T22:36:54.869Z,11.02
2023-05-06T22:39:22.904Z,13.20
2023-05-06T22:41:50.962Z,9.95
2023-05-06T22:44:18.920Z,12.25
2023-05-06T22:46:46.804Z,10.07
2023-05-06T22:49:15.990Z,13.85
2023-05-06T22:51:43.725Z,13.55
2023-05-06T22:54:11.821Z,9.25
2023-05-06T22:56:39.463Z,12.25
2023-05-06T22:59:07.462Z,11.40
2023-05-06T23:01:35.198Z,8.77
2023-05-06T23:04:03.454Z,11.30
2023-05-06T23:06:31.754Z,11.30
2023-05-06T23:08:59.814Z,9.15
2023-05-06T23:11:27.453Z,11.10
2023-05-06T23:13:55.372Z,10.52
2023-05-06T23:16:23.561Z,8.68
2023-05-06T23:18:51.551Z,7.60
2023-05-06T23:21:19.223Z,9.70
2023-05-06T23:23:47.121Z,9.18
2023-05-06T23:26:15.013Z,12.98
2023-05-06T23:28:42.958Z,9.23
2023-05-06T23:31:10.716Z,9.10
2023-05-06T23:33:38.696Z,8.88
2023-05-06T23:36:06.676Z,13.55
2023-05-06T23:38:34.585Z,8.75
2023-05-06T23:41:02.293Z,10.35
2023-05-06T23:43:30.768Z,9.48
2023-05-06T23:45:58.503Z,8.95
2023-05-06T23:48:26.458Z,8.63
2023-05-06T23:50:54.581Z,9.98
2023-05-06T23:53:22.806Z,9.43
2023-05-06T23:55:50.637Z,9.30
2023-05-06T23:58:18.582Z,9.00
